createdAt,value
2019-05-06T00:01:34.582Z,97.00
2019-05-06T00:03:27.999Z,96.60
2019-05-06T00:05:21.012Z,96.90
2019-05-06T00:07:14.383Z,96.60
2019-05-06T00:09:08.311Z,96.60
2019-05-06T00:11:01.528Z,97.10
2019-05-06T00:12:54.480Z,96.80
2019-05-06T00:14:49.232Z,96.10
2019-05-06T00:16:43.875Z,96.60
2019-05-06T00:18:36.502Z,97.30
2019-05-06T00:20:29.959Z,97.10
2019-05-06T00:22:23.765Z,97.20
2019-05-06T00:24:16.997Z,97.20
2019-05-06T00:26:28.250Z,97.20
2019-05-06T00:28:25.851Z,97.30
2019-05-06T00:30:18.996Z,97.30
2019-05-06T00:32:11.375Z,97.50
2019-05-06T00:34:04.449Z,97.40
2019-05-06T00:36:00.368Z,96.80
2019-05-06T00:37:53.664Z,96.50
2019-05-06T00:39:51.435Z,97.40
2019-05-06T00:41:46.391Z,97.30
2019-05-06T00:43:39.526Z,96.60
2019-05-06T00:45:34.107Z,96.70
2019-05-06T00:47:27.705Z,97.60
2019-05-06T00:49:23.795Z,96.60
2019-05-06T00:51:17.219Z,96.70
2019-05-06T00:53:14.069Z,96.70
2019-05-06T00:55:06.563Z,96.30
2019-05-06T00:56:59.815Z,97.10
2019-05-06T00:58:54.454Z,96.10
2019-05-06T01:00:47.288Z,95.90
2019-05-06T01:02:40.059Z,96.10
2019-05-06T01:04:33.884Z,96.30
2019-05-06T01:06:27.139Z,96.30
2019-05-06T01:08:20.536Z,97.20
2019-05-06T01:10:14.517Z,97.50
2019-05-06T01:12:08.681Z,96.90
2019-05-06T01:14:06.783Z,96.80
2019-05-06T01:15:59.735Z,96.60
2019-05-06T01:17:53.829Z,96.10
2019-05-06T01:19:47.488Z,96.70
2019-05-06T01:21:40.540Z,96.90
2019-05-06T01:23:34.262Z,96.80
2019-05-06T01:25:27.292Z,97.30
2019-05-06T01:27:19.604Z,97.30
2019-05-06T01:29:14.389Z,96.80
2019-05-06T01:31:07.281Z,96.60
2019-05-06T01:33:00.085Z,96.60
2019-05-06T01:34:53.696Z,97.00
2019-05-06T01:36:47.537Z,97.40
2019-05-06T01:38:57.613Z,96.80
2019-05-06T01:40:54.569Z,97.30
2019-05-06T01:42:55.032Z,98.20
2019-05-06T01:44:48.564Z,97.80
2019-05-06T01:46:41.391Z,97.50
2019-05-06T01:48:49.772Z,97.80
2019-05-06T01:50:44.512Z,97.80
2019-05-06T01:52:38.052Z,97.80
2019-05-06T01:54:31.392Z,97.80
2019-05-06T01:56:24.701Z,97.50
2019-05-06T01:58:17.903Z,97.60
2019-05-06T02:00:10.662Z,97.90
2019-05-06T02:02:04.584Z,97.30
2019-05-06T02:03:57.819Z,97.30
2019-05-06T02:05:50.981Z,97.50
2019-05-06T02:07:44.219Z,98.10
2019-05-06T02:09:37.896Z,97.50
2019-05-06T02:11:30.209Z,98.20
2019-05-06T02:13:23.820Z,97.40
2019-05-06T02:15:17.135Z,97.20
2019-05-06T02:17:09.339Z,97.10
2019-05-06T02:19:03.834Z,97.20
2019-05-06T02:21:10.705Z,96.90
2019-05-06T02:23:11.277Z,97.50
2019-05-06T02:25:16.955Z,97.00
2019-05-06T02:27:09.844Z,97.00
2019-05-06T02:29:04.330Z,97.20
2019-05-06T02:30:59.275Z,97.20
2019-05-06T02:32:55.720Z,97.80
2019-05-06T02:35:04.929Z,97.40
2019-05-06T02:37:14.667Z,97.70
2019-05-06T02:39:07.787Z,97.40
2019-05-06T02:41:03.505Z,97.30
2019-05-06T02:42:56.804Z,97.50
2019-05-06T02:44:50.158Z,97.10
2019-05-06T02:46:45.042Z,97.30
2019-05-06T02:48:43.346Z,98.00
2019-05-06T02:50:44.843Z,97.10
2019-05-06T02:52:38.046Z,97.00
2019-05-06T02:54:34.120Z,96.50
2019-05-06T02:56:25.079Z,97.00
2019-05-06T02:58:18.561Z,96.70
2019-05-06T03:00:15.902Z,97.30
2019-05-06T03:02:09.106Z,96.30
2019-05-06T03:04:04.410Z,96.50
2019-05-06T03:05:57.089Z,96.80
2019-05-06T03:07:50.276Z,96.90
2019-05-06T03:09:44.584Z,97.90
2019-05-06T03:11:37.679Z,97.10
2019-05-06T03:13:30.407Z,97.70
2019-05-06T03:15:23.893Z,97.20
2019-05-06T03:17:17.580Z,97.60
2019-05-06T03:19:13.370Z,98.30
2019-05-06T03:21:07.209Z,98.00
2019-05-06T03:23:07.712Z,97.90
2019-05-06T03:25:06.364Z,97.80
2019-05-06T03:26:57.522Z,98.50
2019-05-06T03:28:49.811Z,97.70
2019-05-06T03:30:45.859Z,97.70
2019-05-06T03:32:58.602Z,97.50
2019-05-06T03:34:52.445Z,97.70
2019-05-06T03:36:39.202Z,97.90
2019-05-06T03:38:23.007Z,97.50
2019-05-06T03:40:16.690Z,97.40
2019-05-06T03:42:09.609Z,97.50
2019-05-06T03:44:03.435Z,97.40
2019-05-06T03:45:58.276Z,97.10
2019-05-06T03:47:54.264Z,96.90
2019-05-06T03:49:50.177Z,97.40
2019-05-06T03:51:44.348Z,96.90
2019-05-06T03:53:37.844Z,96.10
2019-05-06T03:55:34.236Z,96.80
2019-05-06T03:57:29.201Z,97.10
2019-05-06T03:59:25.260Z,97.00
2019-05-06T04:01:19.855Z,96.60
2019-05-06T04:03:13.998Z,96.60
2019-05-06T04:05:08.288Z,96.80
2019-05-06T04:07:03.392Z,96.70
2019-05-06T04:08:56.678Z,96.00
2019-05-06T04:10:53.849Z,96.90
2019-05-06T04:12:53.436Z,96.70
2019-05-06T04:14:45.500Z,96.80
2019-05-06T04:16:44.872Z,96.70
2019-05-06T04:18:40.241Z,96.60
2019-05-06T04:20:44.186Z,97.20
2019-05-06T04:22:39.136Z,96.80
2019-05-06T04:24:36.570Z,96.40
2019-05-06T04:26:46.625Z,96.40
2019-05-06T04:28:40.119Z,97.00
2019-05-06T04:30:33.631Z,96.90
2019-05-06T04:32:27.257Z,96.30
2019-05-06T04:34:23.226Z,97.60
2019-05-06T04:36:15.117Z,96.70
2019-05-06T04:38:07.465Z,96.80
2019-05-06T04:40:04.231Z,96.50
2019-05-06T04:41:56.090Z,96.50
2019-05-06T04:43:49.146Z,96.80
2019-05-06T04:45:25.607Z,96.80
2019-05-06T04:47:05.103Z,97.10
2019-05-06T04:48:43.186Z,97.00
2019-05-06T04:50:18.766Z,97.00
2019-05-06T04:51:55.238Z,97.20
2019-05-06T04:53:33.888Z,97.30
2019-05-06T04:55:13.716Z,97.50
2019-05-06T04:56:48.077Z,97.40
2019-05-06T04:58:24.101Z,97.70
2019-05-06T05:00:03.805Z,97.50
2019-05-06T05:01:38.002Z,97.20
2019-05-06T05:03:14.386Z,95.90
2019-05-06T05:04:53.194Z,95.70
2019-05-06T05:06:29.495Z,96.10
2019-05-06T05:08:05.837Z,96.70
2019-05-06T05:10:03.250Z,97.00
2019-05-06T05:12:02.483Z,97.10
2019-05-06T05:14:13.398Z,96.90
2019-05-06T05:16:03.685Z,96.30
2019-05-06T05:17:44.476Z,97.30
2019-05-06T05:19:22.918Z,97.50
2019-05-06T05:20:58.412Z,97.30
2019-05-06T05:22:35.189Z,97.40
2019-05-06T05:24:12.011Z,96.90
2019-05-06T05:25:48.482Z,96.20
2019-05-06T05:27:25.047Z,96.30
2019-05-06T05:29:02.751Z,96.30
2019-05-06T05:30:39.219Z,95.40
2019-05-06T05:32:15.064Z,94.70
2019-05-06T05:33:52.637Z,94.20
2019-05-06T05:35:29.280Z,95.20
2019-05-06T05:37:06.280Z,95.00
2019-05-06T05:38:43.464Z,94.70
2019-05-06T05:40:19.713Z,94.80
2019-05-06T05:41:57.947Z,94.70
2019-05-06T05:43:39.656Z,94.70
2019-05-06T05:45:16.937Z,95.10
2019-05-06T05:46:53.583Z,94.30
2019-05-06T05:48:34.208Z,94.50
2019-05-06T05:50:16.181Z,95.30
2019-05-06T05:51:52.891Z,95.30
2019-05-06T05:53:29.344Z,96.40
2019-05-06T05:55:06.582Z,95.70
2019-05-06T05:56:45.104Z,95.70
2019-05-06T05:58:24.578Z,95.50
2019-05-06T05:59:59.602Z,95.70
2019-05-06T06:01:36.458Z,95.70
2019-05-06T06:03:13.079Z,95.40
2019-05-06T06:04:56.441Z,95.10
2019-05-06T06:06:27.019Z,95.40
2019-05-06T06:08:03.598Z,95.90
2019-05-06T06:09:41.893Z,95.70
2019-05-06T06:11:34.999Z,95.60
2019-05-06T06:13:12.773Z,95.30
2019-05-06T06:14:53.545Z,95.10
2019-05-06T06:16:43.152Z,99.40
2019-05-06T06:18:37.960Z,95.50
2019-05-06T06:20:33.611Z,99.90
2019-05-06T06:22:14.472Z,95.70
2019-05-06T06:24:04.173Z,94.00
2019-05-06T06:25:42.257Z,94.10
2019-05-06T06:27:18.352Z,99.40
2019-05-06T06:28:54.745Z,98.60
2019-05-06T06:30:35.492Z,93.70
2019-05-06T06:32:25.674Z,90.70
2019-05-06T06:34:03.433Z,94.80
2019-05-06T06:35:51.984Z,97.80
2019-05-06T06:37:36.742Z,92.80
2019-05-06T06:39:23.865Z,96.50
2019-05-06T06:41:02.538Z,97.50
2019-05-06T06:42:37.921Z,94.20
2019-05-06T06:44:15.708Z,91.30
2019-05-06T06:45:53.074Z,93.00
2019-05-06T06:47:32.007Z,90.10
2019-05-06T06:49:08.279Z,90.40
2019-05-06T06:50:44.899Z,90.40
2019-05-06T06:52:23.155Z,90.10
2019-05-06T06:53:59.454Z,88.90
2019-05-06T06:55:37.416Z,89.20
2019-05-06T06:57:18.336Z,90.30
2019-05-06T06:59:13.707Z,89.00
2019-05-06T07:00:55.802Z,88.70
2019-05-06T07:02:44.531Z,90.10
2019-05-06T07:04:26.951Z,87.80
2019-05-06T07:06:05.396Z,88.70
2019-05-06T07:07:47.173Z,86.70
2019-05-06T07:09:19.908Z,87.20
2019-05-06T07:10:56.248Z,87.90
2019-05-06T07:12:32.786Z,87.10
2019-05-06T07:14:09.500Z,88.60
2019-05-06T07:15:45.803Z,87.40
2019-05-06T07:17:22.893Z,88.90
2019-05-06T07:18:59.225Z,90.70
2019-05-06T07:20:36.925Z,89.10
2019-05-06T07:22:13.162Z,89.90
2019-05-06T07:23:49.249Z,87.30
2019-05-06T07:25:25.706Z,86.70
2019-05-06T07:27:12.633Z,86.50
2019-05-06T07:28:48.725Z,86.20
2019-05-06T07:30:26.760Z,83.80
2019-05-06T07:32:02.937Z,86.40
2019-05-06T07:33:39.613Z,85.50
2019-05-06T07:35:15.790Z,81.90
2019-05-06T07:36:52.636Z,82.40
2019-05-06T07:38:28.829Z,83.10
2019-05-06T07:40:07.240Z,81.70
2019-05-06T07:41:53.536Z,83.10
2019-05-06T07:43:36.870Z,81.80
2019-05-06T07:45:21.997Z,80.60
2019-05-06T07:47:05.973Z,80.20
2019-05-06T07:48:42.923Z,80.40
2019-05-06T07:50:19.237Z,77.10
2019-05-06T07:51:55.898Z,76.30
2019-05-06T07:53:32.180Z,76.50
2019-05-06T07:55:12.014Z,75.10
2019-05-06T07:56:48.432Z,76.70
2019-05-06T07:58:24.448Z,78.90
2019-05-06T08:00:03.126Z,79.00
2019-05-06T08:01:40.268Z,79.10
2019-05-06T08:03:16.662Z,77.30
2019-05-06T08:04:53.424Z,79.10
2019-05-06T08:06:29.699Z,79.50
2019-05-06T08:08:06.312Z,79.60
2019-05-06T08:09:43.226Z,77.70
2019-05-06T08:11:22.273Z,74.30
2019-05-06T08:12:58.569Z,75.00
2019-05-06T08:14:42.972Z,73.60
2019-05-06T08:17:54.755Z,76.10
2019-05-06T08:19:33.375Z,62.20
2019-05-06T08:21:10.145Z,60.80
2019-05-06T08:22:52.595Z,65.10
2019-05-06T08:24:28.587Z,65.70
2019-05-06T08:26:12.148Z,63.70
2019-05-06T08:27:43.429Z,64.30
2019-05-06T08:29:19.450Z,63.40
2019-05-06T08:30:56.384Z,62.70
2019-05-06T08:32:32.428Z,63.10
2019-05-06T08:34:12.134Z,61.60
2019-05-06T08:35:47.772Z,61.90
2019-05-06T08:37:25.573Z,66.60
2019-05-06T08:39:02.953Z,60.60
2019-05-06T08:40:42.856Z,59.60
2019-05-06T08:42:18.332Z,64.00
2019-05-06T08:43:54.603Z,60.80
2019-05-06T08:45:32.480Z,59.70
2019-05-06T08:47:08.104Z,60.20
2019-05-06T08:48:44.123Z,56.60
2019-05-06T08:50:21.911Z,57.50
2019-05-06T08:52:09.824Z,60.00
2019-05-06T08:53:50.368Z,60.80
2019-05-06T08:55:46.116Z,62.20
2019-05-06T08:57:22.837Z,62.30
2019-05-06T08:58:59.127Z,61.90
2019-05-06T09:00:36.865Z,62.40
2019-05-06T09:02:13.784Z,60.80
2019-05-06T09:04:05.066Z,57.60
2019-05-06T09:05:27.917Z,55.20
2019-05-06T09:07:04.217Z,59.50
2019-05-06T09:08:40.249Z,55.60
2019-05-06T09:10:16.331Z,57.40
2019-05-06T09:11:53.437Z,57.60
2019-05-06T09:13:29.780Z,56.90
2019-05-06T09:15:06.549Z,59.10
2019-05-06T09:16:43.998Z,58.70
2019-05-06T09:18:20.685Z,56.90
2019-05-06T09:19:56.764Z,59.30
2019-05-06T09:21:33.637Z,58.00
2019-05-06T09:23:12.405Z,59.90
2019-05-06T09:24:50.240Z,57.50
2019-05-06T09:26:36.567Z,58.40
2019-05-06T09:28:14.614Z,58.60
2019-05-06T09:29:52.374Z,60.40
2019-05-06T09:31:45.440Z,61.10
2019-05-06T09:33:23.344Z,62.20
2019-05-06T09:34:59.958Z,62.40
2019-05-06T09:36:44.932Z,58.60
2019-05-06T09:38:14.453Z,57.20
2019-05-06T09:39:53.185Z,56.10
2019-05-06T09:41:29.285Z,56.60
2019-05-06T09:43:05.594Z,58.40
2019-05-06T09:44:43.073Z,57.40
2019-05-06T09:46:20.423Z,57.70
2019-05-06T09:47:59.574Z,55.40
2019-05-06T09:49:42.375Z,55.80
2019-05-06T09:51:18.133Z,48.50
2019-05-06T09:52:54.238Z,49.80
2019-05-06T09:54:39.160Z,50.40
2019-05-06T09:56:17.233Z,51.40
2019-05-06T09:57:59.056Z,52.20
2019-05-06T09:59:35.224Z,50.60
2019-05-06T10:01:13.093Z,50.90
2019-05-06T10:02:49.637Z,53.10
2019-05-06T10:04:26.276Z,52.80
2019-05-06T10:06:02.838Z,52.90
2019-05-06T10:07:39.270Z,52.80
2019-05-06T10:09:16.383Z,50.80
2019-05-06T10:10:58.911Z,49.50
2019-05-06T10:12:48.967Z,50.20
2019-05-06T10:14:43.391Z,53.70
2019-05-06T10:16:37.065Z,53.50
2019-05-06T10:18:30.645Z,51.60
2019-05-06T10:20:24.917Z,50.60
2019-05-06T10:22:03.571Z,49.70
2019-05-06T10:23:42.559Z,51.70
2019-05-06T10:25:22.521Z,48.80
2019-05-06T10:26:59.312Z,49.60
2019-05-06T10:28:37.143Z,49.30
2019-05-06T10:30:15.596Z,49.40
2019-05-06T10:31:56.247Z,48.70
2019-05-06T10:33:33.377Z,50.80
2019-05-06T10:35:13.102Z,53.00
2019-05-06T10:37:11.548Z,53.80
2019-05-06T10:38:59.180Z,51.60
2019-05-06T10:40:59.556Z,52.40
2019-05-06T10:42:25.618Z,51.80
2019-05-06T10:44:25.898Z,53.40
2019-05-06T10:46:04.058Z,55.30
2019-05-06T10:47:42.366Z,56.00
2019-05-06T10:49:22.563Z,56.10
2019-05-06T10:51:03.515Z,57.80
2019-05-06T10:52:58.084Z,60.40
2019-05-06T10:54:34.575Z,56.90
2019-05-06T10:56:27.615Z,56.70
2019-05-06T10:58:04.620Z,55.10
2019-05-06T10:59:42.805Z,58.30
2019-05-06T11:01:23.469Z,57.10
2019-05-06T11:03:16.698Z,56.50
2019-05-06T11:04:53.016Z,55.90
2019-05-06T11:06:30.025Z,54.20
2019-05-06T11:08:06.264Z,52.50
2019-05-06T11:09:42.698Z,53.80
2019-05-06T11:11:31.579Z,54.20
2019-05-06T11:12:57.658Z,52.80
2019-05-06T11:14:33.660Z,53.20
2019-05-06T11:16:09.737Z,53.50
2019-05-06T11:17:45.954Z,55.70
2019-05-06T11:19:22.408Z,53.80
2019-05-06T11:20:58.802Z,54.40
2019-05-06T11:22:34.903Z,53.60
2019-05-06T11:24:12.259Z,53.90
2019-05-06T11:25:48.747Z,51.00
2019-05-06T11:27:31.863Z,49.00
2019-05-06T11:29:09.254Z,51.10
2019-05-06T11:30:59.421Z,50.40
2019-05-06T11:32:37.255Z,49.50
2019-05-06T11:34:32.615Z,53.00
2019-05-06T11:36:16.460Z,50.20
2019-05-06T11:38:12.540Z,49.30
2019-05-06T11:39:48.581Z,47.50
2019-05-06T11:41:25.585Z,49.00
2019-05-06T11:43:02.301Z,49.50
2019-05-06T11:44:38.384Z,50.00
2019-05-06T11:46:14.447Z,50.80
2019-05-06T11:47:50.672Z,51.20
2019-05-06T11:49:27.241Z,49.90
2019-05-06T11:51:06.288Z,51.70
2019-05-06T11:52:43.459Z,52.40
2019-05-06T11:54:21.571Z,51.40
2019-05-06T11:55:57.929Z,51.00
2019-05-06T11:57:34.276Z,49.70
2019-05-06T11:59:12.981Z,50.80
2019-05-06T12:00:49.446Z,51.10
2019-05-06T12:02:27.048Z,52.70
2019-05-06T12:04:03.544Z,52.90
2019-05-06T12:05:41.758Z,54.20
2019-05-06T12:07:18.334Z,52.90
2019-05-06T12:08:55.067Z,54.70
2019-05-06T12:10:33.087Z,54.50
2019-05-06T12:12:12.810Z,57.20
2019-05-06T12:13:48.532Z,54.30
2019-05-06T12:15:24.650Z,56.90
2019-05-06T12:17:02.255Z,52.60
2019-05-06T12:18:42.100Z,53.40
2019-05-06T12:20:18.461Z,55.20
2019-05-06T12:21:56.642Z,52.20
2019-05-06T12:23:35.472Z,53.70
2019-05-06T12:25:15.320Z,53.60
2019-05-06T12:26:52.090Z,52.80
2019-05-06T12:28:27.750Z,54.30
2019-05-06T12:30:06.886Z,55.10
2019-05-06T12:31:43.450Z,55.20
2019-05-06T12:33:32.723Z,54.50
2019-05-06T12:35:08.704Z,53.40
2019-05-06T12:36:44.830Z,52.90
2019-05-06T12:38:27.461Z,53.80
2019-05-06T12:40:00.267Z,54.40
2019-05-06T12:41:44.720Z,56.10
2019-05-06T12:43:25.056Z,55.60
2019-05-06T12:45:03.566Z,56.80
2019-05-06T12:46:52.915Z,58.00
2019-05-06T12:48:33.162Z,55.30
2019-05-06T12:50:26.088Z,54.90
2019-05-06T12:52:18.796Z,56.80
2019-05-06T12:54:12.894Z,53.60
2019-05-06T12:56:06.716Z,55.40
2019-05-06T12:58:00.379Z,55.50
2019-05-06T12:59:53.367Z,55.50
2019-05-06T13:01:46.633Z,55.60
2019-05-06T13:03:38.979Z,53.60
2019-05-06T13:05:32.075Z,53.80
2019-05-06T13:07:27.321Z,54.70
2019-05-06T13:09:22.548Z,56.20
2019-05-06T13:11:16.135Z,55.70
2019-05-06T13:13:09.376Z,57.00
2019-05-06T13:15:03.847Z,58.10
2019-05-06T13:16:56.642Z,56.10
2019-05-06T13:18:51.735Z,54.70
2019-05-06T13:20:50.298Z,53.40
2019-05-06T13:22:53.122Z,53.50
2019-05-06T13:24:44.973Z,54.70
2019-05-06T13:26:37.967Z,53.60
2019-05-06T13:28:33.321Z,53.80
2019-05-06T13:30:26.859Z,52.50
2019-05-06T13:32:21.994Z,53.30
2019-05-06T13:34:17.122Z,54.30
2019-05-06T13:36:12.970Z,53.40
2019-05-06T13:38:05.445Z,52.40
2019-05-06T13:40:01.649Z,50.60
2019-05-06T13:41:54.538Z,53.20
2019-05-06T13:43:49.566Z,53.70
2019-05-06T13:45:52.389Z,51.60
2019-05-06T13:47:46.833Z,51.50
2019-05-06T13:49:43.352Z,51.50
2019-05-06T13:51:52.202Z,52.20
2019-05-06T13:53:46.339Z,53.60
2019-05-06T13:55:39.581Z,52.50
2019-05-06T13:57:33.228Z,50.20
2019-05-06T13:59:30.176Z,50.30
2019-05-06T14:01:25.896Z,50.50
2019-05-06T14:03:19.124Z,51.00
2019-05-06T14:04:55.152Z,49.30
2019-05-06T14:06:47.479Z,48.70
2019-05-06T14:08:42.214Z,48.10
2019-05-06T14:10:34.844Z,49.90
2019-05-06T14:12:27.842Z,50.60
2019-05-06T14:14:20.147Z,50.40
2019-05-06T14:16:13.416Z,51.90
2019-05-06T14:18:06.994Z,54.40
2019-05-06T14:20:02.445Z,54.10
2019-05-06T14:21:55.086Z,52.60
2019-05-06T14:23:48.592Z,51.50
2019-05-06T14:25:58.832Z,53.10
2019-05-06T14:27:54.692Z,54.50
2019-05-06T14:29:49.248Z,51.90
2019-05-06T14:31:47.106Z,51.40
2019-05-06T14:33:42.704Z,53.30
2019-05-06T14:35:35.196Z,54.40
2019-05-06T14:37:28.848Z,55.20
2019-05-06T14:39:42.916Z,55.60
2019-05-06T14:41:26.891Z,54.10
2019-05-06T14:43:17.354Z,54.30
2019-05-06T14:45:14.498Z,55.70
2019-05-06T14:47:07.094Z,54.80
2019-05-06T14:48:43.774Z,56.60
2019-05-06T14:50:46.117Z,57.00
2019-05-06T14:52:33.357Z,56.80
2019-05-06T14:54:26.771Z,56.40
2019-05-06T14:56:35.752Z,56.60
2019-05-06T14:58:29.035Z,58.80
2019-05-06T15:00:23.135Z,57.80
2019-05-06T15:02:17.849Z,54.40
2019-05-06T15:04:12.496Z,55.30
2019-05-06T15:06:05.810Z,55.40
2019-05-06T15:07:58.454Z,55.00
2019-05-06T15:10:02.447Z,56.60
2019-05-06T15:11:49.252Z,55.70
2019-05-06T15:13:42.780Z,55.60
2019-05-06T15:15:36.260Z,55.00
2019-05-06T15:17:29.695Z,56.40
2019-05-06T15:19:22.867Z,54.80
2019-05-06T15:21:36.161Z,57.80
2019-05-06T15:23:12.956Z,59.20
2019-05-06T15:25:07.075Z,59.80
2019-05-06T15:26:59.949Z,62.20
2019-05-06T15:28:52.877Z,63.50
2019-05-06T15:30:53.897Z,66.50
2019-05-06T15:32:46.983Z,66.80
2019-05-06T15:34:59.295Z,68.90
2019-05-06T15:37:13.006Z,71.10
2019-05-06T15:39:07.244Z,71.90
2019-05-06T15:41:00.689Z,72.90
2019-05-06T15:42:53.902Z,70.80
2019-05-06T15:44:46.518Z,72.00
2019-05-06T15:46:39.517Z,73.70
2019-05-06T15:48:32.740Z,75.30
2019-05-06T15:50:12.509Z,73.90
2019-05-06T15:51:47.735Z,74.50
2019-05-06T15:53:23.974Z,73.90
2019-05-06T15:55:00.072Z,71.50
2019-05-06T15:56:36.244Z,74.10
2019-05-06T15:58:12.525Z,72.30
2019-05-06T15:59:48.591Z,74.70
2019-05-06T16:01:24.698Z,70.90
2019-05-06T16:03:00.944Z,71.80
2019-05-06T16:04:37.044Z,70.80
2019-05-06T16:06:13.351Z,70.10
2019-05-06T16:07:49.524Z,71.30
2019-05-06T16:09:25.587Z,70.70
2019-05-06T16:11:02.918Z,71.70
2019-05-06T16:12:39.150Z,70.70
2019-05-06T16:14:15.237Z,70.50
2019-05-06T16:15:53.182Z,69.80
2019-05-06T16:17:29.588Z,70.50
2019-05-06T16:19:05.753Z,69.40
2019-05-06T16:20:59.205Z,70.40
2019-05-06T16:22:54.033Z,70.00
2019-05-06T16:24:48.784Z,70.00
2019-05-06T16:26:42.904Z,70.90
2019-05-06T16:28:36.673Z,71.60
2019-05-06T16:30:29.660Z,68.40
2019-05-06T16:32:22.073Z,67.80
2019-05-06T16:34:18.736Z,68.70
2019-05-06T16:36:03.762Z,69.30
2019-05-06T16:37:56.690Z,70.00
2019-05-06T16:39:49.087Z,69.30
2019-05-06T16:41:44.587Z,70.50
2019-05-06T16:43:37.436Z,71.20
2019-05-06T16:45:30.879Z,71.50
2019-05-06T16:47:36.759Z,69.30
2019-05-06T16:49:33.192Z,67.00
2019-05-06T16:51:26.305Z,69.00
2019-05-06T16:53:19.748Z,68.20
2019-05-06T16:55:15.047Z,68.70
2019-05-06T16:56:59.601Z,68.50
2019-05-06T16:58:40.098Z,70.00
2019-05-06T17:00:18.491Z,71.70
2019-05-06T17:01:54.587Z,69.30
2019-05-06T17:03:45.299Z,67.60
2019-05-06T17:05:35.337Z,68.20
2019-05-06T17:07:11.852Z,64.80
2019-05-06T17:08:48.540Z,62.60
2019-05-06T17:10:26.506Z,66.40
2019-05-06T17:12:04.747Z,66.50
2019-05-06T17:13:42.550Z,66.30
2019-05-06T17:15:18.915Z,65.50
2019-05-06T17:16:55.151Z,66.70
2019-05-06T17:18:32.982Z,68.00
2019-05-06T17:20:09.203Z,67.10
2019-05-06T17:21:48.303Z,68.50
2019-05-06T17:23:24.110Z,69.20
2019-05-06T17:25:02.289Z,70.60
2019-05-06T17:26:37.957Z,73.10
2019-05-06T17:28:18.629Z,72.70
2019-05-06T17:29:56.535Z,74.70
2019-05-06T17:31:43.509Z,75.50
2019-05-06T17:33:37.139Z,76.70
2019-05-06T17:35:17.234Z,78.90
2019-05-06T17:36:54.957Z,82.80
2019-05-06T17:38:35.737Z,80.80
2019-05-06T17:40:14.333Z,80.90
2019-05-06T17:41:52.220Z,79.30
2019-05-06T17:43:28.671Z,78.70
2019-05-06T17:45:08.551Z,79.10
2019-05-06T17:47:02.800Z,79.00
2019-05-06T17:48:46.073Z,81.60
2019-05-06T17:50:22.640Z,79.90
2019-05-06T17:52:17.913Z,81.80
2019-05-06T17:54:02.303Z,83.50
2019-05-06T17:55:38.624Z,83.60
2019-05-06T17:57:16.297Z,84.00
2019-05-06T17:58:53.295Z,84.10
2019-05-06T18:00:32.392Z,84.90
2019-05-06T18:02:22.857Z,85.20
2019-05-06T18:03:59.320Z,85.30
2019-05-06T18:05:38.401Z,83.10
2019-05-06T18:07:14.515Z,84.60
2019-05-06T18:08:52.800Z,84.40
2019-05-06T18:10:29.012Z,86.00
2019-05-06T18:12:05.394Z,86.70
2019-05-06T18:13:41.588Z,88.60
2019-05-06T18:15:17.769Z,85.50
2019-05-06T18:16:54.028Z,85.30
2019-05-06T18:18:30.581Z,85.00
2019-05-06T18:20:07.272Z,86.40
2019-05-06T18:21:43.540Z,87.10
2019-05-06T18:23:19.612Z,86.40
2019-05-06T18:24:55.941Z,88.20
2019-05-06T18:26:33.573Z,87.90
2019-05-06T18:28:12.091Z,86.80
2019-05-06T18:29:47.956Z,86.50
2019-05-06T18:31:24.714Z,88.70
2019-05-06T18:33:02.293Z,88.10
2019-05-06T18:34:55.876Z,88.70
2019-05-06T18:36:49.366Z,90.00
2019-05-06T18:38:42.128Z,90.10
2019-05-06T18:40:36.918Z,89.10
2019-05-06T18:42:30.117Z,89.10
2019-05-06T18:44:23.640Z,88.60
2019-05-06T18:46:17.813Z,90.30
2019-05-06T18:48:12.116Z,90.30
2019-05-06T18:50:07.301Z,90.30
2019-05-06T18:52:02.092Z,90.80
2019-05-06T18:53:56.873Z,90.80
2019-05-06T18:55:50.322Z,90.80
2019-05-06T18:57:44.162Z,89.00
2019-05-06T18:59:38.189Z,90.00
2019-05-06T19:01:32.797Z,88.20
2019-05-06T19:03:29.082Z,90.60
2019-05-06T19:05:26.963Z,90.00
2019-05-06T19:07:19.389Z,90.70
2019-05-06T19:09:18.610Z,90.80
2019-05-06T19:11:14.797Z,90.50
2019-05-06T19:13:09.207Z,89.90
2019-05-06T19:15:03.617Z,89.50
2019-05-06T19:16:58.096Z,88.60
2019-05-06T19:18:53.458Z,90.00
2019-05-06T19:20:47.475Z,89.20
2019-05-06T19:22:43.463Z,87.60
2019-05-06T19:24:38.347Z,87.00
2019-05-06T19:26:32.813Z,86.60
2019-05-06T19:28:27.601Z,89.10
2019-05-06T19:30:22.459Z,88.60
2019-05-06T19:32:17.249Z,87.40
2019-05-06T19:34:12.898Z,86.50
2019-05-06T19:36:08.019Z,87.00
2019-05-06T19:38:02.958Z,87.90
2019-05-06T19:39:58.296Z,86.60
2019-05-06T19:41:52.869Z,86.90
2019-05-06T19:43:47.522Z,87.00
2019-05-06T19:45:42.449Z,87.80
2019-05-06T19:47:37.429Z,87.20
2019-05-06T19:49:32.798Z,88.40
2019-05-06T19:51:27.672Z,88.70
2019-05-06T19:53:23.668Z,88.30
2019-05-06T19:55:18.442Z,88.50
2019-05-06T19:57:15.830Z,89.50
2019-05-06T19:59:09.436Z,89.00
2019-05-06T20:01:05.291Z,89.30
2019-05-06T20:02:45.105Z,90.10
2019-05-06T20:04:22.922Z,90.10
2019-05-06T20:06:08.120Z,90.30
2019-05-06T20:07:46.956Z,90.30
2019-05-06T20:09:25.961Z,90.20
2019-05-06T20:11:27.713Z,90.40
2019-05-06T20:13:23.201Z,90.00
2019-05-06T20:15:37.975Z,90.90
2019-05-06T20:17:32.783Z,90.80
2019-05-06T20:19:31.125Z,91.10
2019-05-06T20:21:23.091Z,91.50
2019-05-06T20:23:17.765Z,91.70
2019-05-06T20:25:12.502Z,91.90
2019-05-06T20:27:06.006Z,92.20
2019-05-06T20:28:59.202Z,92.50
2019-05-06T20:30:53.033Z,92.20
2019-05-06T20:32:46.389Z,91.80
2019-05-06T20:34:39.744Z,92.10
2019-05-06T20:36:33.372Z,92.20
2019-05-06T20:38:27.954Z,92.40
2019-05-06T20:40:22.869Z,92.20
2019-05-06T20:42:16.150Z,92.00
2019-05-06T20:44:08.386Z,91.70
2019-05-06T20:46:02.754Z,92.00
2019-05-06T20:47:56.431Z,92.00
2019-05-06T20:49:49.780Z,92.40
2019-05-06T20:51:43.925Z,92.30
2019-05-06T20:53:37.011Z,92.10
2019-05-06T20:55:34.805Z,91.90
2019-05-06T20:57:25.119Z,91.70
2019-05-06T20:59:17.836Z,91.90
2019-05-06T21:01:11.315Z,92.20
2019-05-06T21:03:04.646Z,92.10
2019-05-06T21:04:57.920Z,92.60
2019-05-06T21:06:51.230Z,92.70
2019-05-06T21:08:44.084Z,91.80
2019-05-06T21:10:36.975Z,91.90
2019-05-06T21:12:29.984Z,92.00
2019-05-06T21:14:22.919Z,92.40
2019-05-06T21:16:16.289Z,92.10
2019-05-06T21:18:12.042Z,91.70
2019-05-06T21:20:06.190Z,91.70
2019-05-06T21:22:02.304Z,91.80
2019-05-06T21:23:55.271Z,92.00
2019-05-06T21:25:49.277Z,91.70
2019-05-06T21:27:42.584Z,91.80
2019-05-06T21:29:37.087Z,92.10
2019-05-06T21:31:32.492Z,92.30
2019-05-06T21:33:25.141Z,92.20
2019-05-06T21:35:18.568Z,92.20
2019-05-06T21:37:12.333Z,92.30
2019-05-06T21:39:07.556Z,92.50
2019-05-06T21:41:02.028Z,92.70
2019-05-06T21:42:55.292Z,92.70
2019-05-06T21:44:48.235Z,92.70
2019-05-06T21:46:42.874Z,92.90
2019-05-06T21:48:36.404Z,92.60
2019-05-06T21:50:29.709Z,92.50
2019-05-06T21:52:34.263Z,92.80
2019-05-06T21:54:17.421Z,92.90
2019-05-06T21:56:10.364Z,93.30
2019-05-06T21:58:02.689Z,93.10
2019-05-06T21:59:55.828Z,93.10
2019-05-06T22:01:51.997Z,93.30
2019-05-06T22:03:46.227Z,93.10
2019-05-06T22:05:39.432Z,93.20
2019-05-06T22:07:35.621Z,93.60
2019-05-06T22:09:27.117Z,93.50
2019-05-06T22:11:20.012Z,93.50
2019-05-06T22:13:14.605Z,93.50
2019-05-06T22:15:08.163Z,93.30
2019-05-06T22:17:03.873Z,93.50
2019-05-06T22:18:56.296Z,93.60
2019-05-06T22:21:09.328Z,94.00
2019-05-06T22:23:03.202Z,93.90
2019-05-06T22:24:57.998Z,93.80
2019-05-06T22:26:52.072Z,93.70
2019-05-06T22:28:45.744Z,93.80
2019-05-06T22:30:39.069Z,93.90
2019-05-06T22:32:33.136Z,94.30
2019-05-06T22:34:26.730Z,93.70
2019-05-06T22:36:19.930Z,93.40
2019-05-06T22:38:13.312Z,93.40
2019-05-06T22:40:07.678Z,93.60
2019-05-06T22:42:00.748Z,93.50
2019-05-06T22:43:56.324Z,93.90
2019-05-06T22:45:49.336Z,93.90
2019-05-06T22:47:42.234Z,94.00
2019-05-06T22:49:35.276Z,94.30
2019-05-06T22:51:28.501Z,94.10
2019-05-06T22:53:22.118Z,94.10
2019-05-06T22:55:16.080Z,94.40
2019-05-06T22:57:09.200Z,94.30
2019-05-06T22:59:03.238Z,94.60
2019-05-06T23:00:57.544Z,94.80
2019-05-06T23:02:52.848Z,94.70
2019-05-06T23:04:48.469Z,94.60